Time;durP1;ratioP1;P1;durP2;ratioP2;P2;SDS_P1;SDS_P2;PMS_P1;PMS_P2;Temp;Humidity;BMP_temperature;BMP_pressure;BME280_temperature;BME280_humidity;BME280_pressure;Samples;Min_cycle;Max_cycle;Signal;HPM_P1;HPM_P2
2023/03/01 00:06:21;;;;;;;302.60;103.00;;;;;;;-4.92;73.02;99887.67;436912;1249;107681;-39
2023/03/01 00:16:30;;;;;;;250.20;93.10;;;;;;;-5.09;72.91;99890.47;437290;1250;95283;-40
2023/03/01 00:26:39;;;;;;;207.90;85.60;;;;;;;-5.24;73.19;99889.38;435953;1253;110328;-40
2023/03/01 00:36:47;;;;;;;218.00;95.40;;;;;;;-5.24;73.10;99866.52;436115;1250;107806;-40
2023/03/01 00:46:54;;;;;;;197.00;81.50;;;;;;;-5.24;73.29;99859.16;436010;1249;95846;-39
2023/03/01 00:57:02;;;;;;;184.00;77.60;;;;;;;-5.04;73.65;99857.98;436060;1253;108447;-40
2023/03/01 01:07:09;;;;;;;155.40;69.50;;;;;;;-5.08;73.29;99845.02;436020;1249;107568;-39
2023/03/01 01:17:16;;;;;;;140.70;69.10;;;;;;;-5.10;73.66;99850.29;436043;1250;96129;-39
2023/03/01 01:27:23;;;;;;;139.70;67.90;;;;;;;-5.06;73.62;99849.52;436251;1250;107910;-39
2023/03/01 01:47:38;;;;;;;137.30;67.40;;;;;;;-5.14;73.78;99818.13;436037;1252;108495;-39
2023/03/01 01:57:49;;;;;;;134.80;69.40;;;;;;;-5.12;74.01;99809.54;436034;1252;108268;-40
2023/03/01 02:07:57;;;;;;;127.50;65.00;;;;;;;-5.02;74.28;99807.98;436037;1249;95357;-40
2023/03/01 02:18:07;;;;;;;125.70;65.90;;;;;;;-5.05;73.98;99807.15;437482;1250;107612;-40
2023/03/01 02:28:11;;;;;;;;;;;;;;;-5.06;73.84;99812.88;438266;1249;107864;-43
2023/03/01 02:38:20;;;;;;;129.20;65.20;;;;;;;-5.31;73.86;99814.04;435352;1251;95458;-40
2023/03/01 02:48:27;;;;;;;139.10;70.20;;;;;;;-5.33;74.20;99810.04;435244;1255;117895;-40
2023/03/01 03:08:40;;;;;;;159.30;75.90;;;;;;;-5.27;74.29;99792.27;435176;1256;95959;-40
2023/03/01 03:18:48;;;;;;;153.50;75.40;;;;;;;-5.28;74.58;99797.36;435246;1254;109123;-39
2023/03/01 03:28:55;;;;;;;148.00;73.60;;;;;;;-5.17;74.74;99799.92;435242;1252;108081;-40
2023/03/01 03:39:02;;;;;;;137.00;70.30;;;;;;;-5.23;74.55;99795.30;434921;1252;413902;-40
2023/03/01 03:49:08;;;;;;;149.50;74.00;;;;;;;-5.34;74.40;99794.64;435184;1255;108366;-41
2023/03/01 03:59:16;;;;;;;129.40;67.00;;;;;;;-5.46;74.32;99793.23;435174;1252;107884;-40
2023/03/01 04:09:23;;;;;;;129.80;64.30;;;;;;;-5.69;74.15;99797.61;435284;1251;95891;-41
2023/03/01 04:19:35;;;;;;;143.50;68.30;;;;;;;-5.96;74.15;99776.37;435243;1253;107292;-40
2023/03/01 04:29:43;;;;;;;124.60;66.50;;;;;;;-6.05;74.36;99763.91;435337;1252;95231;-40
2023/03/01 04:39:50;;;;;;;142.40;70.90;;;;;;;-6.03;74.69;99767.41;435171;1254;108817;-40
2023/03/01 04:49:57;;;;;;;139.70;68.90;;;;;;;-5.98;74.68;99777.70;436851;1252;107478;-39
2023/03/01 05:10:15;;;;;;;141.70;73.50;;;;;;;-6.14;74.59;99779.76;435142;1252;107644;-40
2023/03/01 05:20:23;;;;;;;155.00;76.50;;;;;;;-6.15;74.84;99782.91;436088;1253;96131;-40
2023/03/01 05:30:29;;;;;;;156.30;75.80;;;;;;;-5.97;75.20;99785.55;435202;1252;107565;-39
2023/03/01 05:40:37;;;;;;;145.20;74.20;;;;;;;-5.86;75.07;99794.06;435147;1255;107405;-39
2023/03/01 06:00:51;;;;;;;157.30;77.40;;;;;;;-5.91;75.18;99796.48;435885;1255;107071;-38
2023/03/01 06:11:00;;;;;;;193.20;88.20;;;;;;;-5.68;75.20;99772.33;435791;1252;96381;-39
2023/03/01 06:21:09;;;;;;;179.90;85.00;;;;;;;-5.34;75.51;99766.48;437613;1257;108390;-40
2023/03/01 06:31:16;;;;;;;194.60;87.50;;;;;;;-4.65;76.04;99762.98;436967;1255;107685;-40
2023/03/01 06:41:23;;;;;;;276.40;118.50;;;;;;;-3.26;76.61;99748.45;438058;1255;95237;-38
2023/03/01 06:51:30;;;;;;;339.50;147.20;;;;;;;-1.74;76.23;99749.07;435198;1255;95439;-40
2023/03/01 07:01:38;;;;;;;309.20;136.30;;;;;;;-1.12;75.20;99769.42;435181;1255;109459;-40
2023/03/01 07:11:45;;;;;;;300.00;143.30;;;;;;;-0.60;75.16;99755.50;436182;1255;107412;-39
2023/03/01 07:21:51;;;;;;;326.90;154.40;;;;;;;-0.22;74.51;99756.57;435301;1252;108358;-39
2023/03/01 07:31:58;;;;;;;251.30;117.80;;;;;;;0.10;74.77;99749.55;436321;1255;96146;-43
2023/03/01 07:42:04;;;;;;;210.60;98.30;;;;;;;0.68;74.92;99749.00;435228;1256;96105;-39
2023/03/01 08:02:17;;;;;;;133.70;67.40;;;;;;;2.52;75.05;99729.23;435267;1258;107790;-40
2023/03/01 08:12:24;;;;;;;116.40;56.90;;;;;;;3.67;74.72;99715.38;435246;1255;107255;-39
2023/03/01 08:22:32;;;;;;;106.20;54.80;;;;;;;4.13;73.88;99705.62;435066;1253;97877;-40
2023/03/01 08:42:45;;;;;;;85.10;46.30;;;;;;;4.54;71.99;99708.40;435276;1255;109844;-41
2023/03/01 08:52:52;;;;;;;57.40;30.90;;;;;;;3.89;70.48;99707.45;435188;1252;109430;-45
2023/03/01 09:02:58;;;;;;;59.60;31.40;;;;;;;3.82;70.38;99711.39;435759;1252;97866;-40
2023/03/01 09:13:05;;;;;;;49.40;28.70;;;;;;;3.57;69.26;99711.16;435210;1255;97856;-40
2023/03/01 09:23:13;;;;;;;57.80;30.10;;;;;;;3.44;68.73;99706.90;435099;1255;111274;-39
2023/03/01 09:33:20;;;;;;;47.90;27.00;;;;;;;3.54;68.26;99709.58;435163;1253;107720;-40
2023/03/01 09:43:27;;;;;;;62.60;31.70;;;;;;;4.04;68.01;99711.79;436387;1255;97859;-39
2023/03/01 09:53:35;;;;;;;58.70;30.00;;;;;;;4.06;66.65;99705.78;435617;1257;97469;-40
2023/03/01 10:03:40;;;;;;;54.30;29.90;;;;;;;3.79;65.36;99700.95;435200;1258;109837;-39
2023/03/01 10:13:45;;;;;;;50.00;27.40;;;;;;;3.86;65.49;99698.36;435273;1252;108507;-39
2023/03/01 10:23:53;;;;;;;35.90;21.10;;;;;;;3.98;64.73;99692.59;435295;1258;97116;-39
2023/03/01 10:34:01;;;;;;;46.80;27.20;;;;;;;4.14;63.98;99682.50;435121;1255;97962;-39
2023/03/01 10:44:41;;;;;;;52.40;28.30;;;;;;;4.22;63.60;99670.95;435344;1258;109491;-38
2023/03/01 10:54:52;;;;;;;57.00;29.70;;;;;;;4.23;63.05;99661.14;437381;1258;108768;-39
2023/03/01 11:05:00;;;;;;;52.50;27.60;;;;;;;4.66;63.03;99648.77;437838;1255;107682;-40
2023/03/01 11:15:20;;;;;;;52.10;30.20;;;;;;;5.07;63.25;99636.92;439146;1258;96637;-40
2023/03/01 11:25:28;;;;;;;55.70;30.30;;;;;;;5.17;62.61;99631.20;435898;1253;97895;-39
2023/03/01 11:35:42;;;;;;;63.80;33.90;;;;;;;5.22;62.04;99633.83;436114;1258;109509;-39
2023/03/01 11:45:52;;;;;;;49.70;29.30;;;;;;;5.04;61.00;99625.24;436232;1255;107105;-40
2023/03/01 11:56:04;;;;;;;48.90;26.30;;;;;;;5.03;61.15;99615.52;435538;1253;108455;-40
2023/03/01 12:06:40;;;;;;;44.70;24.10;;;;;;;5.00;59.42;99610.64;435164;1256;97889;-39
2023/03/01 12:16:55;;;;;;;46.80;26.60;;;;;;;5.04;59.32;99604.80;435238;1256;110184;-43
2023/03/01 12:27:19;;;;;;;43.80;24.70;;;;;;;5.04;59.54;99592.19;435273;1255;106733;-39
2023/03/01 12:37:29;;;;;;;51.40;25.20;;;;;;;5.14;59.13;99570.63;435251;1256;97861;-40
2023/03/01 12:47:41;;;;;;;41.60;24.80;;;;;;;5.06;58.88;99558.55;435214;1257;97986;-39
2023/03/01 12:57:47;;;;;;;42.20;24.70;;;;;;;4.98;59.06;99561.41;437209;1257;111732;-40
2023/03/01 13:07:53;;;;;;;37.00;21.00;;;;;;;4.99;58.67;99559.39;435438;1255;108361;-40
2023/03/01 13:18:01;;;;;;;44.80;20.50;;;;;;;5.05;58.56;99555.71;437095;1264;97232;-40
2023/03/01 13:28:43;;;;;;;35.00;20.40;;;;;;;5.06;58.26;99536.77;435264;1255;97490;-39
2023/03/01 13:38:50;;;;;;;39.40;21.90;;;;;;;5.09;58.45;99525.54;435731;1266;110863;-40
2023/03/01 13:48:59;;;;;;;34.90;18.80;;;;;;;5.12;57.79;99519.09;436192;1253;107171;-40
2023/03/01 13:59:14;;;;;;;40.80;23.60;;;;;;;5.11;57.77;99521.46;435341;1257;97943;-40
2023/03/01 14:09:25;;;;;;;46.90;23.70;;;;;;;5.06;57.87;99511.27;437698;1251;97487;-40
2023/03/01 14:19:34;;;;;;;40.50;22.90;;;;;;;5.04;57.21;99504.47;435303;1257;109503;-40
2023/03/01 14:29:42;;;;;;;40.50;20.60;;;;;;;4.92;57.65;99495.52;435231;1253;108611;-39
2023/03/01 14:39:49;;;;;;;39.30;21.90;;;;;;;4.81;57.68;99490.05;435337;1254;97453;-39
2023/03/01 14:49:55;;;;;;;40.50;20.60;;;;;;;4.73;57.70;99480.20;435264;1256;97889;-40
2023/03/01 15:00:07;;;;;;;32.50;17.20;;;;;;;4.62;57.31;99472.61;435224;1257;109002;-40
2023/03/01 15:10:15;;;;;;;32.10;15.00;;;;;;;4.61;56.19;99476.94;435322;1252;107336;-40
2023/03/01 15:20:25;;;;;;;25.50;13.00;;;;;;;4.51;55.61;99471.09;435220;1256;97881;-39
2023/03/01 15:30:37;;;;;;;27.60;13.50;;;;;;;4.36;54.67;99478.14;435339;1256;98039;-40
2023/03/01 15:40:52;;;;;;;25.30;12.60;;;;;;;4.18;54.40;99487.32;434990;1258;344231;-39
2023/03/01 16:01:12;;;;;;;27.40;14.00;;;;;;;3.73;54.07;99497.92;435299;1257;96760;-39
2023/03/01 16:11:21;;;;;;;30.60;14.30;;;;;;;3.47;54.24;99502.64;435208;1254;97504;-40
2023/03/01 16:21:28;;;;;;;37.70;14.80;;;;;;;3.14;54.21;99495.69;435315;1257;111675;-40
2023/03/01 16:31:36;;;;;;;37.20;17.20;;;;;;;2.63;54.44;99490.77;435285;1257;108129;-40
2023/03/01 16:41:44;;;;;;;58.30;23.10;;;;;;;2.07;54.87;99490.45;435288;1257;97115;-40
2023/03/01 16:51:51;;;;;;;62.30;25.40;;;;;;;1.50;55.59;99494.73;435287;1256;97905;-40
2023/03/01 17:01:58;;;;;;;92.20;27.60;;;;;;;0.99;56.12;99505.03;435209;1257;109235;-39
2023/03/01 17:12:06;;;;;;;71.80;27.70;;;;;;;0.57;56.88;99512.16;435321;1255;108576;-40
2023/03/01 17:22:15;;;;;;;84.60;27.60;;;;;;;0.19;57.45;99508.25;435200;1258;97376;-41
2023/03/01 17:32:21;;;;;;;78.30;30.20;;;;;;;-0.16;57.91;99510.98;436478;1257;97794;-41
2023/03/01 17:42:29;;;;;;;110.30;39.10;;;;;;;-0.47;58.48;99515.89;436290;1252;111643;-40
2023/03/01 17:52:35;;;;;;;124.10;49.50;;;;;;;-0.71;59.29;99513.02;436246;1257;107323;-39
2023/03/01 18:02:43;;;;;;;179.20;62.10;;;;;;;-0.94;59.51;99508.57;435117;1257;97488;-40
2023/03/01 18:12:51;;;;;;;174.00;66.20;;;;;;;-1.11;59.90;99506.90;435279;1257;109838;-39
2023/03/01 18:22:59;;;;;;;173.10;63.10;;;;;;;-1.29;60.43;99504.46;435253;1254;107740;-40
2023/03/01 18:33:06;;;;;;;198.70;71.20;;;;;;;-1.51;60.84;99501.48;435236;1253;118561;-39
2023/03/01 18:43:14;;;;;;;203.70;71.50;;;;;;;-1.70;61.20;99495.48;435190;1254;110375;-39
2023/03/01 18:53:21;;;;;;;225.50;75.80;;;;;;;-1.81;61.54;99494.61;435239;1252;108711;-40
2023/03/01 19:03:29;;;;;;;211.20;73.10;;;;;;;-1.87;61.89;99499.72;435115;1257;96622;-40
2023/03/01 19:13:36;;;;;;;191.20;68.40;;;;;;;-1.95;62.35;99505.55;435146;1252;111773;-38
2023/03/01 19:23:44;;;;;;;187.30;69.30;;;;;;;-2.07;62.24;99495.19;435273;1251;106832;-39
2023/03/01 19:33:53;;;;;;;196.70;69.30;;;;;;;-2.20;62.76;99498.46;435250;1255;97873;-39
2023/03/01 19:44:16;;;;;;;225.90;83.30;;;;;;;-2.31;63.01;99504.42;435388;1255;111367;-39
2023/03/01 19:54:23;;;;;;;209.10;72.80;;;;;;;-2.37;63.60;99505.86;435240;1255;107767;-40
2023/03/01 20:04:31;;;;;;;214.00;74.40;;;;;;;-2.48;63.52;99503.23;438807;1255;96578;-40
2023/03/01 20:14:39;;;;;;;166.30;64.60;;;;;;;-2.52;63.56;99494.95;436891;1252;97774;-38
2023/03/01 20:24:46;;;;;;;172.40;63.40;;;;;;;-2.42;64.03;99495.37;435226;1255;108089;-40
2023/03/01 20:34:53;;;;;;;251.90;82.80;;;;;;;-2.41;64.05;99492.55;435836;1255;97416;-39
2023/03/01 20:45:01;;;;;;;235.60;78.60;;;;;;;-2.50;64.57;99493.26;435155;1255;98084;-41
2023/03/01 20:55:10;;;;;;;217.50;73.80;;;;;;;-2.57;64.97;99492.63;435413;1255;112825;-40
2023/03/01 21:05:16;;;;;;;211.50;74.90;;;;;;;-2.73;65.15;99494.77;435159;1253;108565;-40
2023/03/01 21:15:22;;;;;;;211.20;77.30;;;;;;;-2.93;65.36;99500.04;435367;1253;97866;-40
2023/03/01 21:25:35;;;;;;;225.70;76.90;;;;;;;-3.08;65.45;99501.88;435427;1255;110127;-39
2023/03/01 21:35:43;;;;;;;209.40;75.30;;;;;;;-3.20;65.78;99498.02;435164;1252;108209;-40
2023/03/01 21:45:49;;;;;;;209.30;76.00;;;;;;;-3.29;65.94;99492.86;435236;1252;97462;-39
2023/03/01 21:55:55;;;;;;;214.80;75.50;;;;;;;-3.40;66.09;99497.36;435899;1255;111029;-39
2023/03/01 22:06:03;;;;;;;251.90;88.00;;;;;;;-3.44;66.41;99497.69;435211;1256;109639;-40
2023/03/01 22:16:11;;;;;;;200.60;85.00;;;;;;;-3.39;66.72;99491.95;435074;1252;97960;-40
2023/03/01 22:26:27;;;;;;;202.70;84.60;;;;;;;-3.34;66.66;99496.50;435201;1253;110883;-41
2023/03/01 22:36:35;;;;;;;202.20;84.70;;;;;;;-3.29;67.01;99493.42;435241;1252;106430;-38
2023/03/01 22:46:44;;;;;;;221.70;84.60;;;;;;;-3.21;67.35;99484.50;435341;1255;97850;-40
2023/03/01 22:56:51;;;;;;;199.90;82.10;;;;;;;-3.20;67.73;99486.14;435160;1255;110786;-41
2023/03/01 23:06:59;;;;;;;215.50;87.50;;;;;;;-3.31;67.82;99475.82;435263;1252;107709;-40
2023/03/01 23:17:07;;;;;;;225.10;90.90;;;;;;;-3.48;67.83;99477.14;435290;1252;97898;-40
2023/03/01 23:37:22;;;;;;;205.40;82.90;;;;;;;-3.87;68.50;99466.38;435232;1252;106753;-41
2023/03/01 23:47:30;;;;;;;209.10;83.20;;;;;;;-4.01;68.78;99465.75;435307;1251;97479;-40
2023/03/01 23:57:37;;;;;;;190.10;79.50;;;;;;;-4.16;68.93;99458.81;435246;1252;110386;-40
